createdAt,value
2018-02-25T00:00:09.530Z,75.64
2018-02-25T00:01:09.514Z,75.17
2018-02-25T00:02:09.510Z,75.54
2018-02-25T00:03:09.513Z,75.64
2018-02-25T00:04:09.534Z,75.54
2018-02-25T00:05:09.517Z,74.79
2018-02-25T00:06:09.508Z,75.73
2018-02-25T00:07:09.517Z,75.17
2018-02-25T00:08:09.509Z,75.26
2018-02-25T00:09:09.510Z,75.07
2018-02-25T00:10:09.535Z,75.36
2018-02-25T00:11:09.510Z,75.07
2018-02-25T00:12:09.513Z,74.32
2018-02-25T00:13:09.529Z,74.60
2018-02-25T00:14:09.510Z,74.60
2018-02-25T00:15:09.516Z,74.22
2018-02-25T00:16:09.507Z,75.17
2018-02-25T00:17:09.508Z,75.07
2018-02-25T00:18:09.516Z,75.17
2018-02-25T00:19:09.510Z,75.54
2018-02-25T00:20:09.549Z,75.26
2018-02-25T00:21:09.505Z,75.45
2018-02-25T00:22:09.505Z,75.17
2018-02-25T00:23:09.508Z,74.88
2018-02-25T00:24:09.506Z,75.07
2018-02-25T00:25:09.511Z,74.41
2018-02-25T00:26:09.512Z,74.60
2018-02-25T00:27:09.507Z,75.17
2018-02-25T00:28:09.508Z,74.98
2018-02-25T00:29:09.502Z,75.17
2018-02-25T00:30:09.506Z,74.51
2018-02-25T00:31:09.508Z,74.79
2018-02-25T00:32:09.553Z,75.26
2018-02-25T00:33:09.513Z,74.98
2018-02-25T00:34:09.503Z,75.26
2018-02-25T00:35:09.508Z,74.60
2018-02-25T00:36:09.500Z,75.45
2018-02-25T00:37:09.502Z,75.45
2018-02-25T00:38:09.499Z,75.36
2018-02-25T00:39:09.502Z,75.45
2018-02-25T00:40:09.515Z,75.45
2018-02-25T00:41:09.502Z,75.13
2018-02-25T00:42:09.501Z,75.23
2018-02-25T00:43:09.499Z,75.45
2018-02-25T00:44:09.500Z,74.60
2018-02-25T00:45:09.500Z,74.76
2018-02-25T00:46:09.509Z,74.95
2018-02-25T00:47:09.504Z,75.42
2018-02-25T00:48:09.497Z,75.04
2018-02-25T00:49:09.496Z,74.76
2018-02-25T00:50:09.514Z,74.76
2018-02-25T00:51:09.503Z,75.32
2018-02-25T00:52:09.505Z,75.60
2018-02-25T00:53:09.493Z,75.32
2018-02-25T00:54:09.493Z,74.85
2018-02-25T00:55:09.499Z,74.38
2018-02-25T00:56:09.493Z,74.38
2018-02-25T00:57:09.496Z,74.28
2018-02-25T00:58:09.513Z,74.38
2018-02-25T00:59:09.497Z,73.91
2018-02-25T01:00:09.494Z,74.19
2018-02-25T01:01:09.491Z,74.19
2018-02-25T01:02:09.491Z,74.19
2018-02-25T01:03:09.491Z,74.38
2018-02-25T01:04:09.500Z,74.28
2018-02-25T01:05:09.723Z,74.95
2018-02-25T01:06:09.490Z,74.57
2018-02-25T01:07:09.487Z,74.19
2018-02-25T01:08:09.485Z,74.10
2018-02-25T01:09:09.486Z,73.34
2018-02-25T01:10:09.499Z,73.34
2018-02-25T01:11:09.490Z,73.15
2018-02-25T01:12:09.498Z,72.96
2018-02-25T01:13:09.488Z,72.77
2018-02-25T01:14:09.500Z,73.25
2018-02-25T01:15:09.486Z,73.06
2018-02-25T01:16:09.508Z,72.49
2018-02-25T01:17:09.486Z,72.40
2018-02-25T01:18:09.493Z,72.49
2018-02-25T01:19:09.480Z,72.02
2018-02-25T01:20:09.484Z,72.21
2018-02-25T01:21:09.476Z,72.49
2018-02-25T01:22:09.477Z,72.58
2018-02-25T01:23:09.520Z,72.96
2018-02-25T01:24:09.483Z,72.30
2018-02-25T01:25:09.483Z,72.49
2018-02-25T01:26:09.476Z,72.58
2018-02-25T01:27:09.476Z,72.49
2018-02-25T01:28:09.474Z,72.49
2018-02-25T01:29:09.488Z,72.77
2018-02-25T01:30:09.472Z,72.11
2018-02-25T01:31:09.474Z,71.64
2018-02-25T01:32:09.473Z,72.11
2018-02-25T01:33:09.473Z,71.55
2018-02-25T01:34:09.469Z,71.55
2018-02-25T01:35:09.479Z,71.45
2018-02-25T01:36:09.471Z,71.55
2018-02-25T01:37:09.472Z,71.73
2018-02-25T01:38:09.468Z,71.64
2018-02-25T01:39:09.465Z,71.64
2018-02-25T01:40:09.482Z,71.36
2018-02-25T01:41:09.468Z,71.55
2018-02-25T01:42:09.465Z,71.36
2018-02-25T01:43:09.475Z,71.36
2018-02-25T01:44:09.467Z,71.73
2018-02-25T01:45:09.468Z,71.64
2018-02-25T01:46:09.462Z,71.55
2018-02-25T01:47:09.466Z,71.36
2018-02-25T01:48:09.496Z,71.45
2018-02-25T01:49:09.465Z,71.45
2018-02-25T01:50:09.469Z,71.92
2018-02-25T01:51:09.457Z,71.26
2018-02-25T01:52:09.455Z,71.45
2018-02-25T01:53:09.457Z,71.45
2018-02-25T01:54:09.454Z,71.45
2018-02-25T01:55:09.454Z,71.45
2018-02-25T01:56:09.464Z,71.08
2018-02-25T01:57:09.453Z,70.79
2018-02-25T01:58:09.450Z,71.08
2018-02-25T01:59:09.459Z,72.11
2018-02-25T02:00:09.467Z,72.02
2018-02-25T02:01:09.449Z,71.45
2018-02-25T02:02:09.450Z,71.73
2018-02-25T02:03:09.469Z,71.83
2018-02-25T02:04:09.446Z,72.02
2018-02-25T02:05:09.451Z,71.55
2018-02-25T02:06:09.450Z,71.92
2018-02-25T02:07:09.447Z,72.02
2018-02-25T02:08:09.444Z,71.73
2018-02-25T02:09:09.452Z,72.02
2018-02-25T02:10:09.443Z,72.02
2018-02-25T02:11:09.445Z,72.02
2018-02-25T02:12:09.442Z,72.02
2018-02-25T02:13:09.449Z,72.49
2018-02-25T02:14:09.441Z,72.77
2018-02-25T02:15:09.438Z,73.15
2018-02-25T02:16:09.446Z,73.43
2018-02-25T02:17:09.439Z,72.68
2018-02-25T02:18:09.438Z,72.77
2018-02-25T02:19:09.448Z,72.30
2018-02-25T02:20:09.448Z,72.68
2018-02-25T02:21:09.443Z,72.58
2018-02-25T02:22:09.432Z,72.49
2018-02-25T02:23:09.463Z,73.06
2018-02-25T02:24:09.429Z,72.40
2018-02-25T02:25:09.433Z,72.87
2018-02-25T02:26:09.429Z,72.96
2018-02-25T02:27:09.426Z,72.96
2018-02-25T02:28:09.432Z,72.96
2018-02-25T02:29:09.456Z,72.77
2018-02-25T02:30:09.423Z,73.62
2018-02-25T02:31:09.422Z,73.43
2018-02-25T02:32:09.425Z,72.58
2018-02-25T02:33:09.425Z,72.87
2018-02-25T02:34:09.423Z,72.87
2018-02-25T02:35:09.425Z,73.06
2018-02-25T02:36:09.423Z,73.15
2018-02-25T02:37:09.416Z,72.96
2018-02-25T02:38:09.414Z,73.25
2018-02-25T02:39:09.420Z,73.53
2018-02-25T02:40:09.421Z,73.53
2018-02-25T02:41:09.413Z,73.15
2018-02-25T02:42:09.433Z,73.53
2018-02-25T02:43:09.415Z,74.28
2018-02-25T02:44:09.415Z,73.91
2018-02-25T02:45:09.425Z,74.47
2018-02-25T02:46:09.407Z,74.38
2018-02-25T02:47:09.423Z,74.85
2018-02-25T02:48:09.411Z,74.76
2018-02-25T02:49:09.414Z,74.10
2018-02-25T02:50:09.432Z,74.38
2018-02-25T02:51:09.407Z,74.47
2018-02-25T02:52:09.401Z,74.28
2018-02-25T02:53:09.403Z,74.00
2018-02-25T02:54:09.402Z,74.38
2018-02-25T02:55:09.412Z,74.28
2018-02-25T02:56:09.398Z,74.38
2018-02-25T02:57:09.393Z,74.62
2018-02-25T02:58:09.402Z,74.24
2018-02-25T02:59:09.392Z,74.38
2018-02-25T03:00:09.394Z,74.38
2018-02-25T03:01:09.390Z,74.19
2018-02-25T03:02:09.390Z,75.13
2018-02-25T03:03:09.392Z,74.24
2018-02-25T03:04:09.385Z,74.43
2018-02-25T03:05:09.410Z,75.60
2018-02-25T03:06:09.387Z,75.04
2018-02-25T03:07:09.380Z,75.13
2018-02-25T03:08:09.384Z,74.47
2018-02-25T03:09:09.391Z,74.28
2018-02-25T03:10:09.383Z,74.10
2018-02-25T03:11:09.414Z,74.10
2018-02-25T03:12:09.375Z,73.53
2018-02-25T03:13:09.383Z,73.49
2018-02-25T03:14:09.374Z,73.72
2018-02-25T03:15:09.379Z,74.28
2018-02-25T03:16:09.374Z,74.19
2018-02-25T03:17:09.373Z,74.38
2018-02-25T03:18:09.371Z,74.34
2018-02-25T03:19:09.370Z,74.15
2018-02-25T03:20:09.365Z,75.00
2018-02-25T03:21:09.362Z,74.90
2018-02-25T03:22:09.376Z,74.38
2018-02-25T03:23:09.364Z,74.62
2018-02-25T03:24:09.363Z,74.38
2018-02-25T03:25:09.361Z,74.34
2018-02-25T03:26:09.364Z,74.76
2018-02-25T03:27:09.357Z,74.57
2018-02-25T03:28:09.355Z,74.19
2018-02-25T03:29:09.351Z,74.05
2018-02-25T03:30:09.358Z,74.34
2018-02-25T03:31:09.365Z,74.34
2018-02-25T03:32:09.351Z,74.24
2018-02-25T03:33:09.356Z,74.90
2018-02-25T03:34:09.347Z,74.71
2018-02-25T03:35:09.352Z,75.09
2018-02-25T03:36:09.344Z,75.09
2018-02-25T03:37:09.347Z,75.09
2018-02-25T03:38:09.348Z,74.81
2018-02-25T03:39:09.367Z,75.00
2018-02-25T03:40:09.375Z,75.19
2018-02-25T03:41:09.339Z,75.19
2018-02-25T03:42:09.336Z,75.09
2018-02-25T03:43:09.334Z,75.28
2018-02-25T03:44:09.345Z,75.09
2018-02-25T03:45:09.340Z,75.19
2018-02-25T03:46:09.330Z,75.09
2018-02-25T03:47:09.328Z,74.90
2018-02-25T03:48:09.325Z,75.09
2018-02-25T03:49:09.328Z,75.19
2018-02-25T03:50:09.327Z,75.38
2018-02-25T03:51:09.331Z,75.56
2018-02-25T03:52:09.329Z,76.22
2018-02-25T03:53:09.321Z,76.13
2018-02-25T03:54:09.324Z,75.94
2018-02-25T03:55:09.317Z,76.32
2018-02-25T03:56:09.314Z,76.41
2018-02-25T03:57:09.319Z,76.51
2018-02-25T03:58:09.319Z,76.22
2018-02-25T03:59:09.309Z,75.47
2018-02-25T04:00:09.345Z,76.22
2018-02-25T04:01:09.308Z,76.60
2018-02-25T04:02:09.312Z,75.94
2018-02-25T04:03:09.309Z,76.13
2018-02-25T04:04:09.323Z,76.41
2018-02-25T04:05:09.301Z,76.70
2018-02-25T04:06:09.302Z,76.60
2018-02-25T04:07:09.310Z,76.60
2018-02-25T04:08:09.300Z,76.32
2018-02-25T04:09:09.306Z,75.94
2018-02-25T04:10:09.293Z,76.13
2018-02-25T04:11:09.296Z,75.94
2018-02-25T04:12:09.313Z,76.32
2018-02-25T04:13:09.319Z,76.04
2018-02-25T04:14:09.289Z,76.60
2018-02-25T04:15:09.286Z,76.70
2018-02-25T04:16:09.288Z,76.60
2018-02-25T04:17:09.283Z,76.89
2018-02-25T04:18:09.314Z,76.70
2018-02-25T04:19:09.301Z,76.89
2018-02-25T04:20:09.278Z,76.60
2018-02-25T04:21:09.278Z,76.98
2018-02-25T04:22:09.276Z,76.98
2018-02-25T04:23:09.274Z,76.98
2018-02-25T04:24:09.270Z,77.07
2018-02-25T04:25:09.274Z,77.07
2018-02-25T04:26:09.296Z,77.36
2018-02-25T04:27:09.278Z,76.98
2018-02-25T04:28:09.271Z,76.70
2018-02-25T04:29:09.262Z,76.51
2018-02-25T04:30:09.260Z,76.60
2018-02-25T04:31:09.257Z,76.70
2018-02-25T04:32:09.268Z,76.70
2018-02-25T04:33:09.255Z,76.60
2018-02-25T04:34:09.264Z,76.41
2018-02-25T04:35:09.253Z,76.60
2018-02-25T04:36:09.252Z,76.60
2018-02-25T04:37:09.249Z,76.22
2018-02-25T04:38:09.256Z,76.51
2018-02-25T04:39:09.304Z,77.07
2018-02-25T04:40:09.244Z,76.89
2018-02-25T04:41:09.243Z,76.60
2018-02-25T04:42:09.244Z,76.79
2018-02-25T04:43:09.240Z,76.51
2018-02-25T04:44:09.271Z,76.60
2018-02-25T04:45:09.250Z,76.32
2018-02-25T04:46:09.234Z,76.51
2018-02-25T04:47:09.233Z,76.32
2018-02-25T04:48:09.232Z,75.94
2018-02-25T04:49:09.227Z,76.60
2018-02-25T04:50:09.227Z,76.89
2018-02-25T04:51:09.228Z,77.07
2018-02-25T04:52:09.223Z,77.45
2018-02-25T04:53:09.240Z,76.98
2018-02-25T04:54:09.224Z,77.17
2018-02-25T04:55:09.219Z,77.07
2018-02-25T04:56:09.216Z,76.79
2018-02-25T04:57:09.216Z,76.89
2018-02-25T04:58:09.215Z,77.55
2018-02-25T04:59:09.239Z,77.26
2018-02-25T05:00:09.209Z,76.98
2018-02-25T05:01:09.208Z,77.73
2018-02-25T05:02:09.204Z,77.45
2018-02-25T05:03:09.203Z,77.07
2018-02-25T05:04:09.212Z,77.73
2018-02-25T05:05:09.208Z,77.07
2018-02-25T05:06:09.202Z,76.98
2018-02-25T05:07:09.198Z,76.89
2018-02-25T05:08:09.199Z,76.98
2018-02-25T05:09:09.206Z,76.51
2018-02-25T05:10:09.190Z,77.07
2018-02-25T05:11:09.203Z,77.55
2018-02-25T05:12:09.187Z,77.55
2018-02-25T05:13:09.216Z,77.26
2018-02-25T05:14:09.184Z,76.70
2018-02-25T05:15:09.189Z,77.07
2018-02-25T05:16:09.183Z,76.89
2018-02-25T05:17:09.181Z,77.07
2018-02-25T05:18:09.188Z,77.26
2018-02-25T05:19:09.187Z,76.98
2018-02-25T05:20:09.184Z,77.36
2018-02-25T05:21:09.177Z,77.45
2018-02-25T05:22:09.170Z,77.45
2018-02-25T05:23:09.178Z,77.73
2018-02-25T05:24:09.174Z,77.36
2018-02-25T05:25:09.165Z,77.64
2018-02-25T05:26:09.176Z,77.64
2018-02-25T05:27:09.160Z,77.83
2018-02-25T05:28:09.160Z,77.83
2018-02-25T05:29:09.157Z,77.83
2018-02-25T05:30:09.157Z,77.26
2018-02-25T05:31:09.152Z,77.55
2018-02-25T05:32:09.159Z,77.26
2018-02-25T05:33:09.151Z,77.17
2018-02-25T05:34:09.152Z,76.98
2018-02-25T05:35:09.152Z,77.55
2018-02-25T05:36:09.143Z,77.73
2018-02-25T05:37:09.150Z,77.73
2018-02-25T05:38:09.146Z,77.36
2018-02-25T05:39:09.139Z,77.07
2018-02-25T05:40:09.140Z,77.45
2018-02-25T05:41:09.135Z,77.64
2018-02-25T05:42:09.132Z,77.55
2018-02-25T05:43:09.137Z,77.73
2018-02-25T05:44:09.129Z,77.83
2018-02-25T05:45:09.130Z,77.55
2018-02-25T05:46:09.122Z,77.55
2018-02-25T05:47:09.124Z,77.64
2018-02-25T05:48:09.119Z,77.92
2018-02-25T05:49:09.116Z,77.64
2018-02-25T05:50:09.117Z,78.02
2018-02-25T05:51:09.120Z,77.92
2018-02-25T05:52:09.122Z,78.20
2018-02-25T05:53:09.114Z,77.64
2018-02-25T05:54:09.113Z,77.55
2018-02-25T05:55:09.116Z,78.11
2018-02-25T05:56:09.104Z,78.30
2018-02-25T05:57:09.112Z,78.20
2018-02-25T05:58:09.106Z,78.20
2018-02-25T05:59:09.102Z,78.20
2018-02-25T06:00:09.097Z,78.02
2018-02-25T06:01:09.108Z,78.20
2018-02-25T06:02:09.098Z,77.64
2018-02-25T06:03:09.088Z,77.64
2018-02-25T06:04:09.094Z,77.64
2018-02-25T06:05:09.090Z,77.64
2018-02-25T06:06:09.090Z,78.02
2018-02-25T06:07:09.082Z,78.20
2018-02-25T06:08:09.081Z,78.11
2018-02-25T06:09:09.082Z,77.92
2018-02-25T06:10:09.074Z,77.64
2018-02-25T06:11:09.076Z,77.73
2018-02-25T06:12:09.073Z,77.64
2018-02-25T06:13:09.084Z,77.55
2018-02-25T06:14:09.066Z,77.07
2018-02-25T06:15:09.071Z,76.89
2018-02-25T06:16:09.063Z,76.79
2018-02-25T06:17:09.061Z,76.60
2018-02-25T06:18:09.066Z,76.89
2018-02-25T06:19:09.065Z,77.17
2018-02-25T06:20:09.055Z,76.89
2018-02-25T06:21:09.053Z,77.17
2018-02-25T06:22:09.048Z,77.36
2018-02-25T06:23:09.051Z,76.98
2018-02-25T06:24:09.049Z,77.07
2018-02-25T06:25:09.043Z,77.45
2018-02-25T06:26:09.058Z,76.98
2018-02-25T06:27:09.037Z,76.98
2018-02-25T06:28:09.050Z,76.79
2018-02-25T06:29:09.047Z,76.89
2018-02-25T06:30:09.036Z,76.60
2018-02-25T06:31:09.039Z,76.60
2018-02-25T06:32:09.026Z,76.41
2018-02-25T06:33:09.030Z,76.60
2018-02-25T06:34:09.026Z,76.32
2018-02-25T06:35:09.051Z,76.51
2018-02-25T06:36:09.024Z,76.89
2018-02-25T06:37:09.039Z,76.70
2018-02-25T06:38:09.017Z,76.60
2018-02-25T06:39:09.012Z,76.32
2018-02-25T06:40:09.015Z,76.41
2018-02-25T06:41:09.012Z,76.60
2018-02-25T06:42:09.006Z,76.60
2018-02-25T06:43:09.008Z,75.94
2018-02-25T06:44:09.034Z,76.04
2018-02-25T06:45:09.006Z,76.04
2018-02-25T06:46:09.000Z,76.32
2018-02-25T06:47:09.001Z,76.22
2018-02-25T06:48:09.007Z,76.22
2018-02-25T06:49:09.009Z,76.22
2018-02-25T06:50:09.001Z,76.32
2018-02-25T06:51:08.989Z,75.85
2018-02-25T06:52:08.985Z,76.60
2018-02-25T06:53:08.986Z,76.60
2018-02-25T06:54:08.980Z,75.94
2018-02-25T06:55:08.982Z,75.85
2018-02-25T06:56:08.980Z,75.94
2018-02-25T06:57:08.981Z,75.75
2018-02-25T06:58:08.972Z,75.94
2018-02-25T06:59:08.974Z,76.41
2018-02-25T07:00:08.980Z,76.22
2018-02-25T07:01:08.972Z,76.22
2018-02-25T07:02:08.968Z,75.66
2018-02-25T07:03:09.007Z,75.85
2018-02-25T07:04:08.962Z,75.47
2018-02-25T07:05:08.958Z,76.41
2018-02-25T07:06:08.962Z,76.22
2018-02-25T07:07:08.960Z,75.75
2018-02-25T07:08:08.960Z,76.13
2018-02-25T07:09:08.950Z,76.04
2018-02-25T07:10:08.980Z,75.38
2018-02-25T07:11:08.954Z,75.28
2018-02-25T07:12:08.960Z,75.28
2018-02-25T07:13:08.952Z,75.28
2018-02-25T07:14:08.944Z,75.19
2018-02-25T07:15:08.943Z,75.94
2018-02-25T07:16:08.940Z,75.85
2018-02-25T07:17:08.948Z,75.47
2018-02-25T07:18:08.940Z,75.66
2018-02-25T07:19:08.938Z,75.94
2018-02-25T07:20:08.938Z,75.56
2018-02-25T07:21:08.932Z,75.47
2018-02-25T07:22:08.949Z,75.56
2018-02-25T07:23:08.932Z,76.22
2018-02-25T07:24:08.927Z,76.04
2018-02-25T07:25:08.929Z,75.28
2018-02-25T07:26:08.980Z,75.19
2018-02-25T07:27:08.921Z,75.19
2018-02-25T07:28:08.938Z,75.47
2018-02-25T07:29:08.919Z,75.38
2018-02-25T07:30:08.916Z,75.56
2018-02-25T07:31:08.909Z,74.90
2018-02-25T07:32:08.909Z,74.90
2018-02-25T07:33:08.936Z,75.00
2018-02-25T07:34:08.914Z,75.19
2018-02-25T07:35:08.902Z,75.19
2018-02-25T07:36:08.901Z,75.38
2018-02-25T07:37:08.901Z,75.38
2018-02-25T07:38:08.897Z,75.28
2018-02-25T07:39:08.899Z,74.71
2018-02-25T07:40:08.907Z,75.00
2018-02-25T07:41:08.929Z,74.71
2018-02-25T07:42:08.890Z,75.09
2018-02-25T07:43:08.889Z,75.09
2018-02-25T07:44:08.891Z,74.90
2018-02-25T07:45:08.884Z,75.19
2018-02-25T07:46:08.886Z,74.81
2018-02-25T07:47:08.880Z,75.28
2018-02-25T07:48:08.896Z,75.28
2018-02-25T07:49:08.882Z,75.28
2018-02-25T07:50:08.880Z,74.90
2018-02-25T07:51:08.885Z,74.71
2018-02-25T07:52:08.879Z,74.71
2018-02-25T07:53:08.878Z,74.81
2018-02-25T07:54:09.669Z,75.00
2018-02-25T07:55:08.875Z,74.34
2018-02-25T07:56:08.868Z,74.53
2018-02-25T07:57:08.868Z,74.43
2018-02-25T07:58:08.872Z,74.53
2018-02-25T07:59:08.862Z,74.53
2018-02-25T08:00:08.891Z,74.62
2018-02-25T08:01:08.862Z,74.24
2018-02-25T08:02:08.865Z,73.96
2018-02-25T08:03:08.859Z,74.24
2018-02-25T08:04:08.866Z,74.05
2018-02-25T08:05:08.860Z,74.05
2018-02-25T08:06:08.863Z,73.96
2018-02-25T08:07:08.860Z,74.15
2018-02-25T08:08:08.859Z,74.24
2018-02-25T08:09:08.869Z,73.96
2018-02-25T08:10:08.844Z,74.05
2018-02-25T08:11:08.859Z,73.77
2018-02-25T08:12:08.846Z,73.39
2018-02-25T08:13:08.852Z,73.58
2018-02-25T08:14:08.845Z,73.39
2018-02-25T08:15:08.851Z,73.21
2018-02-25T08:16:08.845Z,73.30
2018-02-25T08:17:08.843Z,73.49
2018-02-25T08:18:08.847Z,72.92
2018-02-25T08:19:08.836Z,72.74
2018-02-25T08:20:08.839Z,73.21
2018-02-25T08:21:08.842Z,73.30
2018-02-25T08:22:08.834Z,72.77
2018-02-25T08:23:08.834Z,72.02
2018-02-25T08:24:08.835Z,71.92
2018-02-25T08:25:08.853Z,72.30
2018-02-25T08:26:08.826Z,72.11
2018-02-25T08:27:08.830Z,72.02
2018-02-25T08:28:08.824Z,72.02
2018-02-25T08:29:08.823Z,71.83
2018-02-25T08:30:08.821Z,72.02
2018-02-25T08:31:08.836Z,71.64
2018-02-25T08:32:08.825Z,72.02
2018-02-25T08:33:08.821Z,71.45
2018-02-25T08:34:08.824Z,71.73
2018-02-25T08:35:08.821Z,71.83
2018-02-25T08:36:08.819Z,72.02
2018-02-25T08:37:08.819Z,71.64
2018-02-25T08:38:08.836Z,71.36
2018-02-25T08:39:08.815Z,71.55
2018-02-25T08:40:08.816Z,71.64
2018-02-25T08:41:08.828Z,70.98
2018-02-25T08:42:08.825Z,71.73
2018-02-25T08:43:08.817Z,71.73
2018-02-25T08:44:08.844Z,71.83
2018-02-25T08:45:08.809Z,71.73
2018-02-25T08:46:08.807Z,70.79
2018-02-25T08:47:08.807Z,70.51
2018-02-25T08:48:08.807Z,71.55
2018-02-25T08:49:08.809Z,71.45
2018-02-25T08:50:08.854Z,71.26
2018-02-25T08:51:08.831Z,71.83
2018-02-25T08:52:08.806Z,70.98
2018-02-25T08:53:08.821Z,70.79
2018-02-25T08:54:08.832Z,70.79
2018-02-25T08:55:08.807Z,70.89
2018-02-25T08:56:08.801Z,70.89
2018-02-25T08:57:08.811Z,70.51
2018-02-25T08:58:08.805Z,70.70
2018-02-25T08:59:08.798Z,70.98
2018-02-25T09:00:08.800Z,70.79
2018-02-25T09:01:08.812Z,70.98
2018-02-25T09:02:08.791Z,70.61
2018-02-25T09:03:08.811Z,70.61
2018-02-25T09:04:08.810Z,70.61
2018-02-25T09:05:08.802Z,69.57
2018-02-25T09:06:08.790Z,69.38
2018-02-25T09:07:08.790Z,69.76
2018-02-25T09:08:08.789Z,69.85
2018-02-25T09:09:08.788Z,69.67
2018-02-25T09:10:08.805Z,69.38
2018-02-25T09:11:08.784Z,69.85
2018-02-25T09:12:08.795Z,70.14
2018-02-25T09:13:08.783Z,70.04
2018-02-25T09:14:08.796Z,70.04
2018-02-25T09:15:08.830Z,70.51
2018-02-25T09:16:08.782Z,70.32
2018-02-25T09:17:08.783Z,69.85
2018-02-25T09:18:08.798Z,69.76
2018-02-25T09:19:08.786Z,69.48
2018-02-25T09:20:08.782Z,69.67
2018-02-25T09:21:08.788Z,69.38
2018-02-25T09:22:08.784Z,68.72
2018-02-25T09:23:08.785Z,68.25
2018-02-25T09:24:08.782Z,68.15
2018-02-25T09:25:08.794Z,69.29
2018-02-25T09:26:08.783Z,68.82
2018-02-25T09:27:08.796Z,68.82
2018-02-25T09:28:08.778Z,68.53
2018-02-25T09:29:08.779Z,68.44
2018-02-25T09:30:08.806Z,68.34
2018-02-25T09:31:08.788Z,68.44
2018-02-25T09:32:08.776Z,68.25
2018-02-25T09:33:08.777Z,68.44
2018-02-25T09:34:08.781Z,69.00
2018-02-25T09:35:08.776Z,68.91
2018-02-25T09:36:08.776Z,68.44
2018-02-25T09:37:08.780Z,68.53
2018-02-25T09:38:08.791Z,68.06
2018-02-25T09:39:08.776Z,68.06
2018-02-25T09:40:08.774Z,67.49
2018-02-25T09:41:08.785Z,67.21
2018-02-25T09:42:08.780Z,67.78
2018-02-25T09:43:08.770Z,66.83
2018-02-25T09:44:08.776Z,66.08
2018-02-25T09:45:08.772Z,65.99
2018-02-25T09:46:08.773Z,66.93
2018-02-25T09:47:08.785Z,66.74
2018-02-25T09:48:08.781Z,67.02
2018-02-25T09:49:08.771Z,67.21
2018-02-25T09:50:08.769Z,66.77
2018-02-25T09:51:08.768Z,66.49
2018-02-25T09:52:08.772Z,66.02
2018-02-25T09:53:08.778Z,65.64
2018-02-25T09:54:08.768Z,65.08
2018-02-25T09:55:08.771Z,64.98
2018-02-25T09:56:08.770Z,64.42
2018-02-25T09:57:08.781Z,63.47
2018-02-25T09:58:08.782Z,63.76
2018-02-25T09:59:08.773Z,64.23
2018-02-25T10:00:08.770Z,63.66
2018-02-25T10:01:08.772Z,63.29
2018-02-25T10:02:08.798Z,63.19
2018-02-25T10:03:08.774Z,63.66
2018-02-25T10:04:08.781Z,64.61
2018-02-25T10:05:08.773Z,64.70
2018-02-25T10:06:08.776Z,64.79
2018-02-25T10:07:08.784Z,64.51
2018-02-25T10:08:08.777Z,65.17
2018-02-25T10:09:08.786Z,64.32
2018-02-25T10:10:08.786Z,64.79
2018-02-25T10:11:08.777Z,64.98
2018-02-25T10:12:08.780Z,65.45
2018-02-25T10:13:08.780Z,64.42
2018-02-25T10:14:08.779Z,63.66
2018-02-25T10:15:08.779Z,62.91
2018-02-25T10:16:08.783Z,62.81
2018-02-25T10:17:08.787Z,63.47
2018-02-25T10:18:08.781Z,64.14
2018-02-25T10:19:08.785Z,64.98
2018-02-25T10:20:08.799Z,64.14
2018-02-25T10:21:08.797Z,63.76
2018-02-25T10:22:08.786Z,63.57
2018-02-25T10:23:08.793Z,62.34
2018-02-25T10:24:08.786Z,62.34
2018-02-25T10:25:08.789Z,62.15
2018-02-25T10:26:08.808Z,62.91
2018-02-25T10:27:08.795Z,62.84
2018-02-25T10:28:08.786Z,63.03
2018-02-25T10:29:08.814Z,61.46
2018-02-25T10:30:08.792Z,59.86
2018-02-25T10:31:08.820Z,59.41
2018-02-25T10:32:08.801Z,56.48
2018-02-25T10:33:08.804Z,54.41
2018-02-25T10:34:08.799Z,54.03
2018-02-25T10:35:08.809Z,53.37
2018-02-25T10:36:08.810Z,53.08
2018-02-25T10:37:08.812Z,51.79
2018-02-25T10:38:08.817Z,50.87
2018-02-25T10:39:08.830Z,50.09
2018-02-25T10:40:08.823Z,50.75
2018-02-25T10:41:08.842Z,50.65
2018-02-25T10:42:08.843Z,51.13
2018-02-25T10:43:08.842Z,50.94
2018-02-25T10:44:08.868Z,49.52
2018-02-25T10:45:08.859Z,49.54
2018-02-25T10:46:08.867Z,48.79
2018-02-25T10:47:08.879Z,48.32
2018-02-25T10:48:08.884Z,47.28
2018-02-25T10:49:08.890Z,46.33
2018-02-25T10:51:08.922Z,46.21
2018-02-25T10:52:08.920Z,46.42
2018-02-25T10:53:08.933Z,45.60
2018-02-25T10:54:08.937Z,45.60
2018-02-25T10:55:09.674Z,45.20
2018-02-25T10:56:08.962Z,45.79
2018-02-25T10:57:29.977Z,45.53
2018-02-25T10:58:08.973Z,44.58
2018-02-25T10:59:08.979Z,43.99
2018-02-25T11:00:09.004Z,43.63
2018-02-25T11:01:09.002Z,43.04
2018-02-25T11:02:09.013Z,43.82
2018-02-25T11:03:30.034Z,42.47
2018-02-25T11:04:09.073Z,42.10
2018-02-25T11:05:09.047Z,42.47
2018-02-25T11:06:09.050Z,43.33
2018-02-25T11:07:09.064Z,43.52
2018-02-25T11:08:09.069Z,42.69
2018-02-25T11:09:30.084Z,42.02
2018-02-25T11:10:09.154Z,41.36
2018-02-25T11:11:09.108Z,41.53
2018-02-25T11:12:09.684Z,42.50
2018-02-25T11:13:09.128Z,42.59
2018-02-25T11:14:09.133Z,43.26
2018-02-25T11:15:30.168Z,42.97
2018-02-25T11:16:09.167Z,41.66
2018-02-25T11:17:09.161Z,41.12
2018-02-25T11:18:09.184Z,41.28
2018-02-25T11:19:09.259Z,40.91
2018-02-25T11:20:09.208Z,39.18
2018-02-25T11:21:30.218Z,38.82
2018-02-25T11:22:09.216Z,38.75
2018-02-25T11:23:09.230Z,39.01
2018-02-25T11:24:09.256Z,39.00
2018-02-25T11:25:09.256Z,38.90
2018-02-25T11:26:09.275Z,39.75
2018-02-25T11:27:30.369Z,41.08
2018-02-25T11:28:09.300Z,40.98
2018-02-25T11:29:09.296Z,41.17
2018-02-25T11:30:09.330Z,41.09
2018-02-25T11:31:09.315Z,39.56
2018-02-25T11:32:09.397Z,39.37
2018-02-25T11:33:30.356Z,39.28
2018-02-25T11:34:09.354Z,38.82
2018-02-25T11:35:09.369Z,38.26
2018-02-25T11:36:09.377Z,37.61
2018-02-25T11:37:09.389Z,37.04
2018-02-25T11:38:09.402Z,37.61
2018-02-25T11:39:30.440Z,37.88
2018-02-25T11:40:09.431Z,38.24
2018-02-25T11:41:09.461Z,39.01
2018-02-25T11:42:09.457Z,39.75
2018-02-25T11:43:09.474Z,39.65
2018-02-25T11:44:09.481Z,40.51
2018-02-25T11:45:30.514Z,41.19
2018-02-25T11:46:09.519Z,41.08
2018-02-25T11:47:09.522Z,40.34
2018-02-25T11:48:09.525Z,39.49
2018-02-25T11:49:09.540Z,39.28
2018-02-25T11:50:09.630Z,39.29
2018-02-25T11:51:30.580Z,39.28
2018-02-25T11:52:09.584Z,38.52
2018-02-25T11:53:09.630Z,38.62
2018-02-25T11:54:09.597Z,40.89
2018-02-25T11:55:09.611Z,41.06
2018-02-25T11:56:09.617Z,41.93
2018-02-25T11:57:30.644Z,41.17
2018-02-25T11:58:09.643Z,41.34
2018-02-25T11:59:09.653Z,41.63
2018-02-25T12:00:09.665Z,42.38
2018-02-25T12:01:09.698Z,43.61
2018-02-25T12:02:09.684Z,42.76
2018-02-25T12:03:30.725Z,42.57
2018-02-25T12:04:09.713Z,43.02
2018-02-25T12:05:09.713Z,42.76
2018-02-25T12:06:09.743Z,42.47
2018-02-25T12:07:09.729Z,42.66
2018-02-25T12:08:09.790Z,41.74
2018-02-25T12:09:30.774Z,42.02
2018-02-25T12:10:09.763Z,42.57
2018-02-25T12:11:09.779Z,42.66
2018-02-25T12:12:09.784Z,42.57
2018-02-25T12:13:09.802Z,41.72
2018-02-25T12:14:09.816Z,42.38
2018-02-25T12:15:30.830Z,42.40
2018-02-25T12:16:09.849Z,41.93
2018-02-25T12:17:09.834Z,41.72
2018-02-25T12:18:09.853Z,42.29
2018-02-25T12:19:09.850Z,42.95
2018-02-25T12:20:09.863Z,43.33
2018-02-25T12:21:30.880Z,43.52
2018-02-25T12:22:09.922Z,42.85
2018-02-25T12:23:09.910Z,42.10
2018-02-25T12:24:09.915Z,42.29
2018-02-25T12:25:09.916Z,42.10
2018-02-25T12:26:09.913Z,43.14
2018-02-25T12:27:30.969Z,44.27
2018-02-25T12:28:09.934Z,45.03
2018-02-25T12:29:09.942Z,44.06
2018-02-25T12:30:09.947Z,43.77
2018-02-25T12:31:09.975Z,43.96
2018-02-25T12:32:09.968Z,44.65
2018-02-25T12:33:30.991Z,44.53
2018-02-25T12:34:09.992Z,45.39
2018-02-25T12:35:09.993Z,44.53
2018-02-25T12:36:10.011Z,44.09
2018-02-25T12:37:10.030Z,43.44
2018-02-25T12:38:10.021Z,41.64
2018-02-25T12:39:31.052Z,40.87
2018-02-25T12:40:10.032Z,41.06
2018-02-25T12:41:10.048Z,42.10
2018-02-25T12:42:10.797Z,42.29
2018-02-25T12:43:10.076Z,42.21
2018-02-25T12:44:10.073Z,41.15
2018-02-25T12:45:31.146Z,41.64
2018-02-25T12:46:10.088Z,41.17
2018-02-25T12:47:10.107Z,40.51
2018-02-25T12:48:10.111Z,40.98
2018-02-25T12:49:10.120Z,40.41
2018-02-25T12:50:10.123Z,40.13
2018-02-25T12:51:31.147Z,39.87
2018-02-25T12:52:10.141Z,39.68
2018-02-25T12:53:10.154Z,39.37